Flugplatz Giengen/Brenz (EDNG)

Hier findest Du alle Informationen zum Flugplatz Giengen/Brenz (EDNG).

Informationen für Piloten zum Flugplatz Giengen/Brenz

Hier findest Du alle relevanten Informationen, die Du als Pilot benötigst, um Giengen/Brenz anzufliegen.

Flugplatz: Giengen/Brenz ICAO-Code: EDNG
Frequenz Turm: 122,355 Mhz GAFOR Gebiet: 62
Frequenz Ground: 122,355 Mhz Mogas: ja
Platzrunde: W 2600 ft Landegebühr: -
Platzhöhe: - Sunrise: 03:21 Uhr UTC
Pisten: 17/35 - 480 m x 15 m, ASPH Sunset: 19:26 Uhr UTC

Mitglieder, die in Giengen/Brenz fliegen

Flugwetter am Flugplatz Giengen/Brenz

Die METAR Information stammen aus EDMA (57.66 km entfernt).

METAR Code:
2020/06/16 08:50
EDMA 160850Z 29005KT 9999 OVC005 15/14 Q1017

Temperatur: 12,4 °C Niederschlag: - Wind: 1,6 kt
Temperatur (min.): 11,7 °C Luftdruck: 1021 hPa Windrichtung: 284 °
Temperatur (max.): 12,8 °C Luftfeuchtigkeit: 70 % Bewölkung: -

Flugschulen am Flugplatz Giengen/Brenz

Am Flugplatz Giengen/Brenz gibt es eine Flugschule.

Benachbarte Flugplätze und Flugschulen

Es gibt 25 weitere Flugplätze in einem Umkreis von 50 km um den Flugplatz Giengen/Brenz.

Jetzt anmelden

Passwort vergessen

Umfrage Archiv

Wären Rettungsgeräte keine Pflicht mehr, würdet Ihr Euer UL trotzdem mit einem ausstatten?

Ja
81.1 %
Nein
18.9 %
Stimmen: 185 | Diskussion
Anzeige: Roland Aircraft
Statistik Alle Mitglieder

Aktuell sind 16 Besucher online.

Anzeige: VFR Sprechfunk Simulator


Anzeige: Pocket FMS